Terminal Aerodrome Forecast
Issued by NWS

Home | Current Version | Previous Version | Text Only | Print | Product List | Glossary On
Versions: 1 2 3 4 5 6 7 8 9 10 11 12 13 14 15 16 17 18 19 20 21 22 23 24 25 26
000
FTUS45 KGJT 182339
TAFTEX
TAF
KTEX 182339Z 1900/1924 25008G15KT P6SM SCT110
     FM190200 14004KT P6SM SKC
     FM191700 27005KT P6SM FEW110
     FM192000 28007KT P6SM VCTS FEW110CB SCT200=

USA.gov is the U.S. government's official web portal to all federal, state and local government web resources and services.